sensor_id;sensor_type;location;lat;lon;timestamp;pressure;altitude;pressure_sealevel;temperature;humidity
62237;BME280;69163;48.778;2.308;2024-02-26T00:01:06;98019.15;;;17.87;33.06
62237;BME280;69163;48.778;2.308;2024-02-26T00:03:32;98020.75;;;18.08;33.07
62237;BME280;69163;48.778;2.308;2024-02-26T00:05:57;98023.23;;;18.04;33.08
62237;BME280;69163;48.778;2.308;2024-02-26T00:08:22;98022.47;;;17.77;33.09
62237;BME280;69163;48.778;2.308;2024-02-26T00:10:48;98024.88;;;17.73;33.10
62237;BME280;69163;48.778;2.308;2024-02-26T00:13:13;98024.99;;;17.98;33.06
62237;BME280;69163;48.778;2.308;2024-02-26T00:15:38;98027.94;;;17.69;33.07
62237;BME280;69163;48.778;2.308;2024-02-26T00:18:04;98028.17;;;17.65;33.09
62237;BME280;69163;48.778;2.308;2024-02-26T00:20:29;98029.81;;;17.42;33.04
62237;BME280;69163;48.778;2.308;2024-02-26T00:22:54;98033.10;;;17.64;33.04
62237;BME280;69163;48.778;2.308;2024-02-26T00:25:19;98034.16;;;17.38;33.04
62237;BME280;69163;48.778;2.308;2024-02-26T00:27:45;98037.76;;;17.83;33.04
62237;BME280;69163;48.778;2.308;2024-02-26T00:30:10;98036.96;;;17.56;33.05
62237;BME280;69163;48.778;2.308;2024-02-26T00:32:35;98032.38;;;17.31;33.04
62237;BME280;69163;48.778;2.308;2024-02-26T00:35:00;98032.32;;;17.53;33.02
62237;BME280;69163;48.778;2.308;2024-02-26T00:37:25;98031.06;;;17.24;33.03
62237;BME280;69163;48.778;2.308;2024-02-26T00:39:51;98034.17;;;17.73;33.02
62237;BME280;69163;48.778;2.308;2024-02-26T00:42:16;98036.79;;;17.19;33.05
62237;BME280;69163;48.778;2.308;2024-02-26T00:44:40;98041.49;;;17.65;33.07
62237;BME280;69163;48.778;2.308;2024-02-26T00:47:07;98045.07;;;17.66;33.04
62237;BME280;69163;48.778;2.308;2024-02-26T00:49:32;98046.37;;;17.63;33.03
62237;BME280;69163;48.778;2.308;2024-02-26T00:51:57;98048.56;;;17.63;33.02
62237;BME280;69163;48.778;2.308;2024-02-26T00:54:22;98052.24;;;17.36;33.03
62237;BME280;69163;48.778;2.308;2024-02-26T00:56:47;98053.16;;;17.58;33.04
62237;BME280;69163;48.778;2.308;2024-02-26T00:59:13;98053.65;;;17.57;33.02
62237;BME280;69163;48.778;2.308;2024-02-26T01:01:38;98054.63;;;17.05;33.06
62237;BME280;69163;48.778;2.308;2024-02-26T01:04:03;98058.15;;;17.27;33.06
62237;BME280;69163;48.778;2.308;2024-02-26T01:06:27;98060.21;;;17.47;33.10
62237;BME280;69163;48.778;2.308;2024-02-26T01:08:53;98060.10;;;17.46;33.10
62237;BME280;69163;48.778;2.308;2024-02-26T01:11:20;98063.83;;;17.41;33.14
62237;BME280;69163;48.778;2.308;2024-02-26T01:13:44;98062.23;;;17.39;33.13
62237;BME280;69163;48.778;2.308;2024-02-26T01:16:09;98065.12;;;17.41;33.08
62237;BME280;69163;48.778;2.308;2024-02-26T01:18:34;98066.52;;;17.39;33.11
62237;BME280;69163;48.778;2.308;2024-02-26T01:20:59;98073.07;;;17.40;33.09
62237;BME280;69163;48.778;2.308;2024-02-26T01:23:25;98074.83;;;17.36;33.10
62237;BME280;69163;48.778;2.308;2024-02-26T01:25:49;98077.62;;;17.07;33.16
62237;BME280;69163;48.778;2.308;2024-02-26T01:28:16;98077.32;;;17.29;33.15
62237;BME280;69163;48.778;2.308;2024-02-26T01:30:40;98075.93;;;17.29;33.15
62237;BME280;69163;48.778;2.308;2024-02-26T01:33:06;98074.67;;;17.27;33.15
62237;BME280;69163;48.778;2.308;2024-02-26T01:35:31;98074.18;;;17.25;33.15
62237;BME280;69163;48.778;2.308;2024-02-26T01:37:56;98077.05;;;17.24;33.15
62237;BME280;69163;48.778;2.308;2024-02-26T01:40:22;98077.06;;;16.99;33.15
62237;BME280;69163;48.778;2.308;2024-02-26T01:42:47;98079.37;;;17.23;33.14
62237;BME280;69163;48.778;2.308;2024-02-26T01:45:15;98079.43;;;17.20;33.16
62237;BME280;69163;48.778;2.308;2024-02-26T01:47:37;98082.50;;;16.95;33.18
62237;BME280;69163;48.778;2.308;2024-02-26T01:50:02;98080.62;;;17.40;33.18
62237;BME280;69163;48.778;2.308;2024-02-26T01:52:27;98082.06;;;17.16;33.18
62237;BME280;69163;48.778;2.308;2024-02-26T01:54:53;98085.86;;;17.10;33.22
62237;BME280;69163;48.778;2.308;2024-02-26T01:57:19;98088.53;;;17.12;33.17
62237;BME280;69163;48.778;2.308;2024-02-26T01:59:43;98090.35;;;16.88;33.19
62237;BME280;69163;48.778;2.308;2024-02-26T02:02:10;98092.94;;;17.08;33.22
62237;BME280;69163;48.778;2.308;2024-02-26T02:04:33;98093.20;;;17.08;33.23
62237;BME280;69163;48.778;2.308;2024-02-26T02:07:00;98092.71;;;17.31;33.22
62237;BME280;69163;48.778;2.308;2024-02-26T02:09:25;98095.03;;;17.29;33.20
62237;BME280;69163;48.778;2.308;2024-02-26T02:11:50;98095.10;;;17.06;33.20
62237;BME280;69163;48.778;2.308;2024-02-26T02:14:15;98097.59;;;17.06;33.20
62237;BME280;69163;48.778;2.308;2024-02-26T02:16:40;98097.92;;;17.01;33.24
62237;BME280;69163;48.778;2.308;2024-02-26T02:19:05;98099.34;;;17.03;33.21
62237;BME280;69163;48.778;2.308;2024-02-26T02:21:30;98102.68;;;17.00;33.23
62237;BME280;69163;48.778;2.308;2024-02-26T02:23:56;98105.87;;;17.22;33.25
62237;BME280;69163;48.778;2.308;2024-02-26T02:26:21;98109.22;;;16.99;33.22
62237;BME280;69163;48.778;2.308;2024-02-26T02:28:46;98110.59;;;17.24;33.22
62237;BME280;69163;48.778;2.308;2024-02-26T02:31:11;98112.07;;;17.19;33.27
62237;BME280;69163;48.778;2.308;2024-02-26T02:33:37;98112.14;;;16.99;33.17
62237;BME280;69163;48.778;2.308;2024-02-26T02:36:02;98113.39;;;16.95;33.26
62237;BME280;69163;48.778;2.308;2024-02-26T02:38:27;98115.81;;;16.89;33.31
62237;BME280;69163;48.778;2.308;2024-02-26T02:40:52;98116.56;;;16.86;33.32
62237;BME280;69163;48.778;2.308;2024-02-26T02:43:18;98119.13;;;16.87;33.32
62237;BME280;69163;48.778;2.308;2024-02-26T02:45:42;98118.25;;;16.86;33.30
62237;BME280;69163;48.778;2.308;2024-02-26T02:48:08;98121.19;;;17.11;33.29
62237;BME280;69163;48.778;2.308;2024-02-26T02:50:33;98123.69;;;17.12;33.29
62237;BME280;69163;48.778;2.308;2024-02-26T02:52:58;98123.02;;;16.87;33.28
62237;BME280;69163;48.778;2.308;2024-02-26T02:55:24;98123.14;;;16.85;33.29
62237;BME280;69163;48.778;2.308;2024-02-26T02:57:49;98124.08;;;16.61;33.29
62237;BME280;69163;48.778;2.308;2024-02-26T03:00:15;98123.75;;;16.86;33.26
62237;BME280;69163;48.778;2.308;2024-02-26T03:02:39;98122.92;;;16.83;33.27
62237;BME280;69163;48.778;2.308;2024-02-26T03:05:05;98122.68;;;16.83;33.28
62237;BME280;69163;48.778;2.308;2024-02-26T03:07:29;98124.51;;;16.81;33.29
62237;BME280;69163;48.778;2.308;2024-02-26T03:09:55;98125.04;;;17.07;33.26
62237;BME280;69163;48.778;2.308;2024-02-26T03:12:21;98126.01;;;16.55;33.29
62237;BME280;69163;48.778;2.308;2024-02-26T03:14:46;98122.94;;;17.02;33.29
62237;BME280;69163;48.778;2.308;2024-02-26T03:17:11;98129.87;;;17.00;33.31
62237;BME280;69163;48.778;2.308;2024-02-26T03:19:36;98131.45;;;16.76;33.30
62237;BME280;69163;48.778;2.308;2024-02-26T03:22:01;98135.58;;;16.97;33.32
62237;BME280;69163;48.778;2.308;2024-02-26T03:24:27;98138.75;;;16.75;33.32
62237;BME280;69163;48.778;2.308;2024-02-26T03:26:51;98137.18;;;16.49;33.31
62237;BME280;69163;48.778;2.308;2024-02-26T03:29:17;98139.85;;;16.94;33.34
62237;BME280;69163;48.778;2.308;2024-02-26T03:31:42;98139.16;;;16.94;33.32
62237;BME280;69163;48.778;2.308;2024-02-26T03:34:07;98137.94;;;16.93;33.33
62237;BME280;69163;48.778;2.308;2024-02-26T03:36:33;98142.32;;;16.93;33.34
62237;BME280;69163;48.778;2.308;2024-02-26T03:38:58;98140.58;;;16.93;33.31
62237;BME280;69163;48.778;2.308;2024-02-26T03:41:23;98143.70;;;16.69;33.32
62237;BME280;69163;48.778;2.308;2024-02-26T03:43:48;98144.35;;;16.92;33.31
62237;BME280;69163;48.778;2.308;2024-02-26T03:46:13;98148.43;;;16.67;33.32
62237;BME280;69163;48.778;2.308;2024-02-26T03:48:39;98150.49;;;16.68;33.31
62237;BME280;69163;48.778;2.308;2024-02-26T03:51:04;98151.36;;;17.13;33.31
62237;BME280;69163;48.778;2.308;2024-02-26T03:53:29;98159.00;;;16.64;33.35
62237;BME280;69163;48.778;2.308;2024-02-26T03:55:54;98163.71;;;16.60;33.38
62237;BME280;69163;48.778;2.308;2024-02-26T03:58:20;98168.22;;;16.86;33.36
62237;BME280;69163;48.778;2.308;2024-02-26T04:00:45;98173.24;;;16.65;33.32
62237;BME280;69163;48.778;2.308;2024-02-26T04:03:10;98178.01;;;16.63;33.34
62237;BME280;69163;48.778;2.308;2024-02-26T04:05:35;98178.76;;;16.59;33.35
62237;BME280;69163;48.778;2.308;2024-02-26T04:08:01;98180.09;;;16.84;33.34
62237;BME280;69163;48.778;2.308;2024-02-26T04:10:26;98181.40;;;16.58;33.35
62237;BME280;69163;48.778;2.308;2024-02-26T04:12:51;98184.68;;;16.84;33.35
62237;BME280;69163;48.778;2.308;2024-02-26T04:15:17;98183.67;;;17.05;33.35
62237;BME280;69163;48.778;2.308;2024-02-26T04:17:41;98187.48;;;16.59;33.34
62237;BME280;69163;48.778;2.308;2024-02-26T04:20:07;98190.24;;;16.58;33.35
62237;BME280;69163;48.778;2.308;2024-02-26T04:22:32;98189.69;;;16.55;33.36
62237;BME280;69163;48.778;2.308;2024-02-26T04:25:00;98191.58;;;17.06;33.34
62237;BME280;69163;48.778;2.308;2024-02-26T04:27:22;98195.73;;;16.78;33.37
62237;BME280;69163;48.778;2.308;2024-02-26T04:29:48;98198.20;;;16.53;33.39
62237;BME280;69163;48.778;2.308;2024-02-26T04:32:13;98202.28;;;17.00;33.38
62237;BME280;69163;48.778;2.308;2024-02-26T04:34:38;98208.13;;;16.76;33.40
62237;BME280;69163;48.778;2.308;2024-02-26T04:37:04;98208.59;;;16.75;33.38
62237;BME280;69163;48.778;2.308;2024-02-26T04:39:28;98212.18;;;16.74;33.39
62237;BME280;69163;48.778;2.308;2024-02-26T04:41:54;98210.32;;;16.72;33.41
62237;BME280;69163;48.778;2.308;2024-02-26T04:44:20;98213.67;;;16.75;33.38
62237;BME280;69163;48.778;2.308;2024-02-26T04:46:44;98218.19;;;16.72;33.40
62237;BME280;69163;48.778;2.308;2024-02-26T04:49:10;98218.07;;;17.19;33.41
62237;BME280;69163;48.778;2.308;2024-02-26T04:54:00;98222.55;;;16.70;33.40
62237;BME280;69163;48.778;2.308;2024-02-26T04:56:25;98230.80;;;16.71;33.40
62237;BME280;69163;48.778;2.308;2024-02-26T04:58:50;98233.63;;;16.47;33.38
62237;BME280;69163;48.778;2.308;2024-02-26T05:01:17;98231.20;;;16.69;33.40
62237;BME280;69163;48.778;2.308;2024-02-26T05:03:40;98234.33;;;16.68;33.39
62237;BME280;69163;48.778;2.308;2024-02-26T05:06:06;98235.49;;;16.92;33.41
62237;BME280;69163;48.778;2.308;2024-02-26T05:08:31;98242.47;;;16.69;33.40
62237;BME280;69163;48.778;2.308;2024-02-26T05:10:57;98251.35;;;16.69;33.38
62237;BME280;69163;48.778;2.308;2024-02-26T05:13:22;98249.92;;;16.44;33.38
62237;BME280;69163;48.778;2.308;2024-02-26T05:15:47;98256.45;;;16.69;33.37
62237;BME280;69163;48.778;2.308;2024-02-26T05:18:13;98263.68;;;16.71;33.34
62237;BME280;69163;48.778;2.308;2024-02-26T05:20:38;98264.01;;;16.71;33.35
62237;BME280;69163;48.778;2.308;2024-02-26T05:23:03;98265.44;;;16.68;33.36
62237;BME280;69163;48.778;2.308;2024-02-26T05:25:29;98264.89;;;16.72;33.31
62237;BME280;69163;48.778;2.308;2024-02-26T05:27:53;98269.74;;;16.71;33.32
62237;BME280;69163;48.778;2.308;2024-02-26T05:30:19;98272.96;;;16.49;33.28
62237;BME280;69163;48.778;2.308;2024-02-26T05:32:44;98274.41;;;16.47;33.30
62237;BME280;69163;48.778;2.308;2024-02-26T05:35:09;98279.83;;;16.44;33.33
62237;BME280;69163;48.778;2.308;2024-02-26T05:37:34;98281.69;;;16.43;33.35
62237;BME280;69163;48.778;2.308;2024-02-26T05:40:00;98285.41;;;16.64;33.37
62237;BME280;69163;48.778;2.308;2024-02-26T05:42:25;98285.54;;;16.88;33.37
62237;BME280;69163;48.778;2.308;2024-02-26T05:44:50;98288.65;;;16.86;33.39
62237;BME280;69163;48.778;2.308;2024-02-26T05:47:15;98291.43;;;16.84;33.41
62237;BME280;69163;48.778;2.308;2024-02-26T05:49:41;98294.55;;;16.61;33.39
62237;BME280;69163;48.778;2.308;2024-02-26T05:52:06;98298.68;;;16.61;33.39
62237;BME280;69163;48.778;2.308;2024-02-26T05:54:31;98303.00;;;16.67;33.33
62237;BME280;69163;48.778;2.308;2024-02-26T05:56:57;98303.67;;;16.42;33.32
62237;BME280;69163;48.778;2.308;2024-02-26T05:59:21;98306.42;;;16.44;33.30
62237;BME280;69163;48.778;2.308;2024-02-26T06:01:47;98308.98;;;16.93;33.27
62237;BME280;69163;48.778;2.308;2024-02-26T06:04:12;98310.28;;;16.42;33.30
62237;BME280;69163;48.778;2.308;2024-02-26T06:06:37;98314.38;;;16.65;33.31
62237;BME280;69163;48.778;2.308;2024-02-26T06:09:02;98322.41;;;16.38;33.36
62237;BME280;69163;48.778;2.308;2024-02-26T06:11:28;98326.57;;;16.38;33.36
62237;BME280;69163;48.778;2.308;2024-02-26T06:13:52;98326.19;;;16.59;33.37
62237;BME280;69163;48.778;2.308;2024-02-26T06:16:19;98331.74;;;16.83;33.37
62237;BME280;69163;48.778;2.308;2024-02-26T06:18:43;98332.68;;;16.62;33.34
62237;BME280;69163;48.778;2.308;2024-02-26T06:21:10;98340.70;;;16.90;33.30
62237;BME280;69163;48.778;2.308;2024-02-26T06:23:34;98342.14;;;16.68;33.28
62237;BME280;69163;48.778;2.308;2024-02-26T06:26:00;98348.95;;;16.64;33.30
62237;BME280;69163;48.778;2.308;2024-02-26T06:28:24;98352.93;;;16.62;33.33
62237;BME280;69163;48.778;2.308;2024-02-26T06:30:49;98356.64;;;16.86;33.32
62237;BME280;69163;48.778;2.308;2024-02-26T06:33:15;98362.43;;;16.62;33.33
62237;BME280;69163;48.778;2.308;2024-02-26T06:35:40;98363.62;;;16.37;33.33
62237;BME280;69163;48.778;2.308;2024-02-26T06:38:05;98363.79;;;16.59;33.35
62237;BME280;69163;48.778;2.308;2024-02-26T06:40:31;98367.03;;;16.87;33.30
62237;BME280;69163;48.778;2.308;2024-02-26T06:42:56;98372.03;;;16.87;33.30
62237;BME280;69163;48.778;2.308;2024-02-26T06:45:20;98373.12;;;16.35;33.35
62237;BME280;69163;48.778;2.308;2024-02-26T06:47:46;98379.68;;;16.58;33.35
62237;BME280;69163;48.778;2.308;2024-02-26T06:50:12;98381.27;;;16.82;33.35
62237;BME280;69163;48.778;2.308;2024-02-26T06:52:37;98383.12;;;16.57;33.35
62237;BME280;69163;48.778;2.308;2024-02-26T06:55:02;98387.07;;;16.82;33.33
62237;BME280;69163;48.778;2.308;2024-02-26T06:57:27;98393.12;;;16.78;33.37
62237;BME280;69163;48.778;2.308;2024-02-26T06:59:56;98393.63;;;16.27;33.40
62237;BME280;69163;48.778;2.308;2024-02-26T07:02:19;98398.72;;;16.29;33.39
62237;BME280;69163;48.778;2.308;2024-02-26T07:04:43;98404.12;;;16.54;33.38
62237;BME280;69163;48.778;2.308;2024-02-26T07:07:08;98408.43;;;16.80;33.33
62237;BME280;69163;48.778;2.308;2024-02-26T07:09:33;98412.95;;;16.53;33.37
62237;BME280;69163;48.778;2.308;2024-02-26T07:11:59;98417.57;;;16.30;33.37
62237;BME280;69163;48.778;2.308;2024-02-26T07:14:24;98416.86;;;16.24;33.43
62237;BME280;69163;48.778;2.308;2024-02-26T07:16:49;98420.83;;;16.70;33.44
62237;BME280;69163;48.778;2.308;2024-02-26T07:19:14;98421.29;;;16.44;33.47
62237;BME280;69163;48.778;2.308;2024-02-26T07:21:39;98424.88;;;16.46;33.44
62237;BME280;69163;48.778;2.308;2024-02-26T07:24:05;98428.96;;;16.46;33.45
62237;BME280;69163;48.778;2.308;2024-02-26T07:26:30;98433.98;;;16.48;33.42
62237;BME280;69163;48.778;2.308;2024-02-26T07:28:55;98440.70;;;16.50;33.40
62237;BME280;69163;48.778;2.308;2024-02-26T07:31:20;98445.21;;;16.70;33.43
62237;BME280;69163;48.778;2.308;2024-02-26T07:33:46;98452.05;;;16.69;33.44
62237;BME280;69163;48.778;2.308;2024-02-26T07:36:12;98454.20;;;16.67;33.46
62237;BME280;69163;48.778;2.308;2024-02-26T07:38:36;98455.28;;;16.42;33.47
62237;BME280;69163;48.778;2.308;2024-02-26T07:41:02;98457.98;;;16.42;33.48
62237;BME280;69163;48.778;2.308;2024-02-26T07:43:27;98465.66;;;16.39;33.50
62237;BME280;69163;48.778;2.308;2024-02-26T07:45:52;98469.14;;;16.17;33.50
62237;BME280;69163;48.778;2.308;2024-02-26T07:48:18;98467.25;;;16.40;33.50
62237;BME280;69163;48.778;2.308;2024-02-26T07:50:43;98473.15;;;16.42;33.48
62237;BME280;69163;48.778;2.308;2024-02-26T07:53:07;98473.08;;;16.35;33.68
62237;BME280;69163;48.778;2.308;2024-02-26T07:55:33;98476.17;;;16.28;35.12
62237;BME280;69163;48.778;2.308;2024-02-26T07:57:58;98477.09;;;16.28;35.51
62237;BME280;69163;48.778;2.308;2024-02-26T08:00:23;98484.33;;;16.45;35.87
62237;BME280;69163;48.778;2.308;2024-02-26T08:02:48;98488.56;;;16.43;36.02
62237;BME280;69163;48.778;2.308;2024-02-26T08:05:14;98491.55;;;16.44;36.15
62237;BME280;69163;48.778;2.308;2024-02-26T08:07:39;98494.85;;;16.43;36.32
62237;BME280;69163;48.778;2.308;2024-02-26T08:10:05;98497.86;;;16.46;36.55
62237;BME280;69163;48.778;2.308;2024-02-26T08:12:30;98502.83;;;16.46;36.70
62237;BME280;69163;48.778;2.308;2024-02-26T08:14:55;98504.37;;;16.50;36.78
62237;BME280;69163;48.778;2.308;2024-02-26T08:17:20;98509.69;;;16.49;36.77
62237;BME280;69163;48.778;2.308;2024-02-26T08:19:45;98513.84;;;16.26;36.74
62237;BME280;69163;48.778;2.308;2024-02-26T08:22:10;98512.72;;;16.25;36.79
62237;BME280;69163;48.778;2.308;2024-02-26T08:24:36;98511.52;;;16.21;36.78
62237;BME280;69163;48.778;2.308;2024-02-26T08:27:01;98514.85;;;16.23;36.74
62237;BME280;69163;48.778;2.308;2024-02-26T08:29:26;98518.13;;;16.28;36.70
62237;BME280;69163;48.778;2.308;2024-02-26T08:31:51;98520.67;;;16.30;37.08
62237;BME280;69163;48.778;2.308;2024-02-26T08:34:17;98520.90;;;16.28;37.58
62237;BME280;69163;48.778;2.308;2024-02-26T08:36:42;98526.42;;;16.54;37.58
62237;BME280;69163;48.778;2.308;2024-02-26T08:39:07;98531.10;;;16.50;37.66
62237;BME280;69163;48.778;2.308;2024-02-26T08:41:32;98536.74;;;16.53;37.81
62237;BME280;69163;48.778;2.308;2024-02-26T08:43:58;98538.49;;;16.57;37.78
62237;BME280;69163;48.778;2.308;2024-02-26T08:46:23;98540.82;;;16.32;37.83
62237;BME280;69163;48.778;2.308;2024-02-26T08:48:53;98544.51;;;16.31;37.84
62237;BME280;69163;48.778;2.308;2024-02-26T08:51:13;98551.84;;;16.34;37.83
62237;BME280;69163;48.778;2.308;2024-02-26T08:53:40;98555.29;;;16.32;37.84
62237;BME280;69163;48.778;2.308;2024-02-26T08:56:04;98562.19;;;16.10;37.70
62237;BME280;69163;48.778;2.308;2024-02-26T08:58:29;98567.38;;;16.33;37.80
62237;BME280;69163;48.778;2.308;2024-02-26T09:00:55;98575.42;;;16.57;37.78
62237;BME280;69163;48.778;2.308;2024-02-26T09:03:20;98578.65;;;16.59;37.70
62237;BME280;69163;48.778;2.308;2024-02-26T09:05:45;98585.82;;;16.58;37.69
62237;BME280;69163;48.778;2.308;2024-02-26T09:08:10;98587.13;;;16.63;37.58
62237;BME280;69163;48.778;2.308;2024-02-26T09:10:35;98593.45;;;16.36;37.60
62237;BME280;69163;48.778;2.308;2024-02-26T09:13:01;98598.23;;;16.61;37.50
62237;BME280;69163;48.778;2.308;2024-02-26T09:15:31;98599.28;;;16.56;37.56
62237;BME280;69163;48.778;2.308;2024-02-26T09:17:51;98602.37;;;16.58;37.56
62237;BME280;69163;48.778;2.308;2024-02-26T09:20:17;98606.34;;;16.34;37.49
62237;BME280;69163;48.778;2.308;2024-02-26T09:22:42;98608.63;;;16.35;37.49
62237;BME280;69163;48.778;2.308;2024-02-26T09:25:08;98610.17;;;16.34;37.39
62237;BME280;69163;48.778;2.308;2024-02-26T09:27:32;98617.24;;;16.36;37.41
62237;BME280;69163;48.778;2.308;2024-02-26T09:29:57;98618.55;;;16.35;37.37
62237;BME280;69163;48.778;2.308;2024-02-26T09:32:22;98622.87;;;16.33;37.35
62237;BME280;69163;48.778;2.308;2024-02-26T09:34:47;98626.24;;;16.31;37.33
62237;BME280;69163;48.778;2.308;2024-02-26T09:37:14;98627.53;;;16.30;37.33
62237;BME280;69163;48.778;2.308;2024-02-26T09:39:38;98631.03;;;16.29;37.30
62237;BME280;69163;48.778;2.308;2024-02-26T09:42:05;98635.74;;;16.53;37.29
62237;BME280;69163;48.778;2.308;2024-02-26T09:44:29;98638.82;;;16.53;37.24
62237;BME280;69163;48.778;2.308;2024-02-26T09:46:54;98642.04;;;16.55;37.17
62237;BME280;69163;48.778;2.308;2024-02-26T09:49:22;98645.18;;;16.33;37.11
62237;BME280;69163;48.778;2.308;2024-02-26T09:51:44;98648.89;;;16.09;37.09
62237;BME280;69163;48.778;2.308;2024-02-26T09:54:10;98652.41;;;16.33;37.04
62237;BME280;69163;48.778;2.308;2024-02-26T09:56:35;98652.09;;;16.32;37.00
62237;BME280;69163;48.778;2.308;2024-02-26T09:59:00;98657.44;;;16.30;37.00
62237;BME280;69163;48.778;2.308;2024-02-26T10:01:25;98660.85;;;16.31;37.01
62237;BME280;69163;48.778;2.308;2024-02-26T10:03:55;98666.09;;;16.56;36.96
62237;BME280;69163;48.778;2.308;2024-02-26T10:06:16;98670.05;;;16.33;36.92
62237;BME280;69163;48.778;2.308;2024-02-26T10:08:42;98676.50;;;16.33;36.90
62237;BME280;69163;48.778;2.308;2024-02-26T10:11:07;98680.21;;;16.34;36.84
62237;BME280;69163;48.778;2.308;2024-02-26T10:13:32;98685.36;;;16.34;36.79
62237;BME280;69163;48.778;2.308;2024-02-26T10:15:57;98689.54;;;16.33;36.80
62237;BME280;69163;48.778;2.308;2024-02-26T10:18:28;98696.41;;;16.35;36.77
62237;BME280;69163;48.778;2.308;2024-02-26T10:23:12;98701.47;;;16.34;36.76
62237;BME280;69163;48.778;2.308;2024-02-26T10:25:37;98703.20;;;16.59;36.72
62237;BME280;69163;48.778;2.308;2024-02-26T10:28:03;98707.50;;;16.36;36.69
62237;BME280;69163;48.778;2.308;2024-02-26T10:30:28;98711.35;;;16.59;36.68
62237;BME280;69163;48.778;2.308;2024-02-26T10:32:54;98714.54;;;16.35;36.65
62237;BME280;69163;48.778;2.308;2024-02-26T10:35:19;98717.13;;;16.34;36.64
62237;BME280;69163;48.778;2.308;2024-02-26T10:37:45;98720.80;;;16.33;36.64
62237;BME280;69163;48.778;2.308;2024-02-26T10:40:11;98721.97;;;16.54;36.67
62237;BME280;69163;48.778;2.308;2024-02-26T10:42:34;98724.40;;;16.28;36.68
62237;BME280;69163;48.778;2.308;2024-02-26T10:45:00;98726.51;;;16.29;36.66
62237;BME280;69163;48.778;2.308;2024-02-26T10:47:25;98730.64;;;16.55;36.61
62237;BME280;69163;48.778;2.308;2024-02-26T10:49:51;98736.56;;;16.57;36.57
62237;BME280;69163;48.778;2.308;2024-02-26T10:52:16;98736.18;;;16.36;36.53
62237;BME280;69163;48.778;2.308;2024-02-26T10:54:41;98741.01;;;16.33;36.53
62237;BME280;69163;48.778;2.308;2024-02-26T10:57:06;98747.03;;;16.12;36.49
62237;BME280;69163;48.778;2.308;2024-02-26T10:59:33;98748.34;;;16.61;36.47
62237;BME280;69163;48.778;2.308;2024-02-26T11:01:56;98752.81;;;16.63;36.41
62237;BME280;69163;48.778;2.308;2024-02-26T11:04:22;98757.70;;;16.39;36.42
62237;BME280;69163;48.778;2.308;2024-02-26T11:06:47;98760.12;;;16.63;36.39
62237;BME280;69163;48.778;2.308;2024-02-26T11:09:14;98765.53;;;16.41;36.32
62237;BME280;69163;48.778;2.308;2024-02-26T11:11:37;98769.40;;;16.41;36.32
62237;BME280;69163;48.778;2.308;2024-02-26T11:14:04;98770.65;;;16.41;36.30
62237;BME280;69163;48.778;2.308;2024-02-26T11:16:28;98773.96;;;16.41;36.27
62237;BME280;69163;48.778;2.308;2024-02-26T11:18:53;98778.95;;;16.18;36.26
62237;BME280;69163;48.778;2.308;2024-02-26T11:21:19;98778.62;;;16.19;36.22
62237;BME280;69163;48.778;2.308;2024-02-26T11:23:44;98778.01;;;16.64;36.25
62237;BME280;69163;48.778;2.308;2024-02-26T11:26:10;98781.32;;;16.61;36.27
62237;BME280;69163;48.778;2.308;2024-02-26T11:28:34;98783.64;;;16.16;36.24
62237;BME280;69163;48.778;2.308;2024-02-26T11:31:00;98785.53;;;16.67;36.17
62237;BME280;69163;48.778;2.308;2024-02-26T11:33:25;98785.00;;;16.40;36.17
62237;BME280;69163;48.778;2.308;2024-02-26T11:35:49;98791.23;;;16.20;36.12
62237;BME280;69163;48.778;2.308;2024-02-26T11:38:20;98790.33;;;16.65;36.12
62237;BME280;69163;48.778;2.308;2024-02-26T11:40:39;98792.69;;;16.65;36.11
62237;BME280;69163;48.778;2.308;2024-02-26T11:43:05;98793.98;;;16.39;36.11
62237;BME280;69163;48.778;2.308;2024-02-26T11:45:49;98796.63;;;16.65;36.10
62237;BME280;69163;48.778;2.308;2024-02-26T11:47:56;98796.61;;;16.39;36.10
62237;BME280;69163;48.778;2.308;2024-02-26T11:50:34;98801.31;;;16.41;36.06
62237;BME280;69163;48.778;2.308;2024-02-26T11:55:11;98800.98;;;16.64;36.03
62237;BME280;69163;48.778;2.308;2024-02-26T11:57:39;98804.89;;;16.61;36.06
62237;BME280;69163;48.778;2.308;2024-02-26T12:00:12;98807.61;;;16.61;36.04
62237;BME280;69163;48.778;2.308;2024-02-26T12:02:39;98812.53;;;16.64;36.01
62237;BME280;69163;48.778;2.308;2024-02-26T12:04:58;98817.25;;;16.40;35.99
62237;BME280;69163;48.778;2.308;2024-02-26T12:07:18;98820.50;;;16.41;35.95
62237;BME280;69163;48.778;2.308;2024-02-26T12:09:43;98824.95;;;16.40;35.97
62237;BME280;69163;48.778;2.308;2024-02-26T12:12:09;98824.58;;;16.16;35.94
62237;BME280;69163;48.778;2.308;2024-02-26T12:14:35;98827.58;;;16.66;35.89
62237;BME280;69163;48.778;2.308;2024-02-26T12:16:59;98836.65;;;16.68;35.85
62237;BME280;69163;48.778;2.308;2024-02-26T12:19:24;98833.47;;;16.69;35.82
62237;BME280;69163;48.778;2.308;2024-02-26T12:21:52;98838.26;;;16.45;35.81
62237;BME280;69163;48.778;2.308;2024-02-26T12:24:15;98835.68;;;16.42;35.80
62237;BME280;69163;48.778;2.308;2024-02-26T12:26:41;98844.22;;;16.42;35.80
62237;BME280;69163;48.778;2.308;2024-02-26T12:29:05;98850.69;;;16.70;35.72
62237;BME280;69163;48.778;2.308;2024-02-26T12:31:30;98849.43;;;16.43;35.75
62237;BME280;69163;48.778;2.308;2024-02-26T12:33:55;98859.61;;;16.21;35.72
62237;BME280;69163;48.778;2.308;2024-02-26T12:36:21;98864.34;;;16.24;35.68
62237;BME280;69163;48.778;2.308;2024-02-26T12:38:45;98870.56;;;16.44;35.67
62237;BME280;69163;48.778;2.308;2024-02-26T12:41:11;98877.64;;;16.45;35.68
62237;BME280;69163;48.778;2.308;2024-02-26T12:43:36;98879.55;;;16.68;35.68
62237;BME280;69163;48.778;2.308;2024-02-26T12:46:03;98883.54;;;16.69;35.65
62237;BME280;69163;48.778;2.308;2024-02-26T12:48:27;98882.21;;;16.70;35.59
62237;BME280;69163;48.778;2.308;2024-02-26T12:50:52;98886.91;;;16.71;35.55
62237;BME280;69163;48.778;2.308;2024-02-26T12:53:18;98883.96;;;16.20;35.56
62237;BME280;69163;48.778;2.308;2024-02-26T12:55:43;98893.80;;;16.45;35.55